createdAt,value
2022-07-27T00:01:19.485Z,20.89
2022-07-27T00:03:49.554Z,20.83
2022-07-27T00:06:18.065Z,20.83
2022-07-27T00:08:46.539Z,20.74
2022-07-27T00:11:15.320Z,20.69
2022-07-27T00:13:45.177Z,20.65
2022-07-27T00:16:14.003Z,20.61
2022-07-27T00:18:42.593Z,20.55
2022-07-27T00:21:12.951Z,20.48
2022-07-27T00:23:41.922Z,20.42
2022-07-27T00:26:10.428Z,20.41
2022-07-27T00:28:38.849Z,20.40
2022-07-27T00:31:07.492Z,20.34
2022-07-27T00:33:36.004Z,20.34
2022-07-27T00:36:04.755Z,20.29
2022-07-27T00:38:34.720Z,20.27
2022-07-27T00:41:04.337Z,20.38
2022-07-27T00:43:33.977Z,20.49
2022-07-27T00:46:04.554Z,20.54
2022-07-27T00:48:33.713Z,20.57
2022-07-27T00:51:02.473Z,20.57
2022-07-27T00:53:31.012Z,20.62
2022-07-27T00:56:01.834Z,20.69
2022-07-27T00:58:30.973Z,20.70
2022-07-27T01:01:00.026Z,20.69
2022-07-27T01:03:29.451Z,20.57
2022-07-27T01:06:01.919Z,20.46
2022-07-27T01:08:31.083Z,20.42
2022-07-27T01:11:02.186Z,20.44
2022-07-27T01:13:31.147Z,20.37
2022-07-27T01:16:00.419Z,20.24
2022-07-27T01:18:31.993Z,20.21
2022-07-27T01:21:02.758Z,20.16
2022-07-27T01:23:33.572Z,20.05
2022-07-27T01:26:03.065Z,20.00
2022-07-27T01:28:31.578Z,19.96
2022-07-27T01:31:00.085Z,19.94
2022-07-27T01:33:28.610Z,19.93
2022-07-27T01:35:58.231Z,19.86
2022-07-27T01:38:26.972Z,19.80
2022-07-27T01:40:57.463Z,19.76
2022-07-27T01:43:25.980Z,19.76
2022-07-27T01:45:54.674Z,19.68
2022-07-27T01:48:23.713Z,19.56
2022-07-27T01:50:52.240Z,19.44
2022-07-27T01:53:22.059Z,19.37
2022-07-27T01:55:51.283Z,19.38
2022-07-27T01:58:21.340Z,19.36
2022-07-27T02:00:50.763Z,19.48
2022-07-27T02:03:19.475Z,19.65
2022-07-27T02:05:48.076Z,19.70
2022-07-27T02:08:16.621Z,19.66
2022-07-27T02:10:59.006Z,19.64
2022-07-27T02:13:29.458Z,19.63
2022-07-27T02:15:58.072Z,19.64
2022-07-27T02:18:33.021Z,19.57
2022-07-27T02:21:05.965Z,19.57
2022-07-27T02:23:34.970Z,19.58
2022-07-27T02:26:03.465Z,19.62
2022-07-27T02:28:33.452Z,19.67
2022-07-27T02:31:02.342Z,19.72
2022-07-27T02:33:31.098Z,19.80
2022-07-27T02:35:59.592Z,19.91
2022-07-27T02:38:28.068Z,19.99
2022-07-27T02:40:56.591Z,20.01
2022-07-27T02:43:25.100Z,20.03
2022-07-27T02:45:54.981Z,19.98
2022-07-27T02:48:23.529Z,19.93
2022-07-27T02:50:52.030Z,19.79
2022-07-27T02:53:20.829Z,19.67
2022-07-27T02:55:49.227Z,19.63
2022-07-27T02:58:17.731Z,19.61
2022-07-27T03:00:46.246Z,19.55
2022-07-27T03:03:16.138Z,19.48
2022-07-27T03:05:44.746Z,19.46
2022-07-27T03:08:13.567Z,19.52
2022-07-27T03:10:42.340Z,19.57
2022-07-27T03:13:17.415Z,19.55
2022-07-27T03:15:45.879Z,19.46
2022-07-27T03:18:15.811Z,19.43
2022-07-27T03:20:44.367Z,19.44
2022-07-27T03:23:12.948Z,19.41
2022-07-27T03:25:41.819Z,19.44
2022-07-27T03:28:10.727Z,19.37
2022-07-27T03:30:41.310Z,19.27
2022-07-27T03:33:10.004Z,19.17
2022-07-27T03:35:40.136Z,19.12
2022-07-27T03:38:08.662Z,19.08
2022-07-27T03:40:40.906Z,19.04
2022-07-27T03:43:09.411Z,19.07
2022-07-27T03:45:38.143Z,19.08
2022-07-27T03:48:07.238Z,19.13
2022-07-27T03:50:35.937Z,19.27
2022-07-27T03:53:05.979Z,19.33
2022-07-27T03:55:34.618Z,19.25
2022-07-27T03:58:03.127Z,19.17
2022-07-27T04:00:31.693Z,19.22
2022-07-27T04:03:00.244Z,19.34
2022-07-27T04:05:29.392Z,19.45
2022-07-27T04:07:59.473Z,19.48
2022-07-27T04:10:31.807Z,19.53
2022-07-27T04:13:01.107Z,19.60
2022-07-27T04:15:31.384Z,19.63
2022-07-27T04:18:00.146Z,19.67
2022-07-27T04:20:28.743Z,19.80
2022-07-27T04:22:57.379Z,19.80
2022-07-27T04:25:26.038Z,19.78
2022-07-27T04:27:55.943Z,19.75
2022-07-27T04:30:24.707Z,19.84
2022-07-27T04:32:53.758Z,19.91
2022-07-27T04:35:26.377Z,19.90
2022-07-27T04:37:58.706Z,19.85
2022-07-27T04:40:32.932Z,19.87
2022-07-27T04:43:04.566Z,19.91
2022-07-27T04:45:33.122Z,19.93
2022-07-27T04:48:05.920Z,19.99
2022-07-27T04:50:39.351Z,20.08
2022-07-27T04:53:07.904Z,20.10
2022-07-27T04:55:36.494Z,20.05
2022-07-27T04:58:06.376Z,20.05
2022-07-27T05:00:34.825Z,20.10
2022-07-27T05:03:04.083Z,20.10
2022-07-27T05:05:33.153Z,20.15
2022-07-27T05:08:01.779Z,20.23
2022-07-27T05:10:30.304Z,20.26
2022-07-27T05:12:59.655Z,20.24
2022-07-27T05:15:54.002Z,20.25
2022-07-27T05:18:19.618Z,20.24
2022-07-27T05:20:48.139Z,20.20
2022-07-27T05:23:18.739Z,20.19
2022-07-27T05:25:47.300Z,20.22
2022-07-27T05:28:15.863Z,20.21
2022-07-27T05:30:45.687Z,20.21
2022-07-27T05:33:14.192Z,20.23
2022-07-27T05:35:42.705Z,20.22
2022-07-27T05:38:11.279Z,20.24
2022-07-27T05:40:40.756Z,20.25
2022-07-27T05:43:09.491Z,20.34
2022-07-27T05:45:38.286Z,20.48
2022-07-27T05:48:08.304Z,20.59
2022-07-27T05:50:37.120Z,20.61
2022-07-27T05:53:06.056Z,20.64
2022-07-27T05:55:34.672Z,20.65
2022-07-27T05:58:03.146Z,20.70
2022-07-27T06:00:31.787Z,20.78
2022-07-27T06:03:00.275Z,20.73
2022-07-27T06:05:30.688Z,20.74
2022-07-27T06:08:03.486Z,20.79
2022-07-27T06:10:34.550Z,20.89
2022-07-27T06:13:06.257Z,20.96
2022-07-27T06:15:35.221Z,20.95
2022-07-27T06:18:09.024Z,21.03
2022-07-27T06:20:38.878Z,20.98
2022-07-27T06:23:09.159Z,21.00
2022-07-27T06:25:37.918Z,21.10
2022-07-27T06:28:07.241Z,21.17
2022-07-27T06:30:35.735Z,21.16
2022-07-27T06:33:06.262Z,21.26
2022-07-27T06:35:39.051Z,21.31
2022-07-27T06:38:09.640Z,21.39
2022-07-27T06:40:38.312Z,21.45
2022-07-27T06:43:06.818Z,21.50
2022-07-27T06:45:35.495Z,21.59
2022-07-27T06:48:04.060Z,21.66
2022-07-27T06:50:32.553Z,21.70
2022-07-27T06:53:01.768Z,21.79
2022-07-27T06:55:31.683Z,21.84
2022-07-27T06:58:00.193Z,21.87
2022-07-27T07:00:28.875Z,21.85
2022-07-27T07:02:59.605Z,21.79
2022-07-27T07:05:29.104Z,21.82
2022-07-27T07:07:58.962Z,21.90
2022-07-27T07:10:28.945Z,21.94
2022-07-27T07:13:05.543Z,21.95
2022-07-27T07:15:35.180Z,22.00
2022-07-27T07:18:03.936Z,22.05
2022-07-27T07:20:32.543Z,22.00
2022-07-27T07:23:01.918Z,22.00
2022-07-27T07:25:31.219Z,22.00
2022-07-27T07:28:01.425Z,21.95
2022-07-27T07:30:30.219Z,21.97
2022-07-27T07:32:58.946Z,22.01
2022-07-27T07:35:28.332Z,22.02
2022-07-27T07:37:57.384Z,22.04
2022-07-27T07:40:43.237Z,22.10
2022-07-27T07:43:14.955Z,22.26
2022-07-27T07:45:50.293Z,22.39
2022-07-27T07:48:20.994Z,22.49
2022-07-27T07:50:52.136Z,22.52
2022-07-27T07:53:22.429Z,22.62
2022-07-27T07:55:51.343Z,22.73
2022-07-27T07:58:21.796Z,22.85
2022-07-27T08:00:50.416Z,22.94
2022-07-27T08:03:19.714Z,23.00
2022-07-27T08:05:48.393Z,23.04
2022-07-27T08:08:17.825Z,23.01
2022-07-27T08:10:47.865Z,23.02
2022-07-27T08:13:21.475Z,23.11
2022-07-27T08:15:53.407Z,23.15
2022-07-27T08:18:22.314Z,23.20
2022-07-27T08:20:50.977Z,23.28
2022-07-27T08:23:19.703Z,23.35
2022-07-27T08:25:48.611Z,23.43
2022-07-27T08:28:17.204Z,23.45
2022-07-27T08:30:46.736Z,23.52
2022-07-27T08:33:16.934Z,23.57
2022-07-27T08:35:46.411Z,23.61
2022-07-27T08:38:14.970Z,23.67
2022-07-27T08:40:45.786Z,23.72
2022-07-27T08:43:23.953Z,23.70
2022-07-27T08:45:55.677Z,23.72
2022-07-27T08:48:26.852Z,23.78
2022-07-27T08:50:56.409Z,23.86
2022-07-27T08:53:25.723Z,23.94
2022-07-27T08:55:56.816Z,24.00
2022-07-27T08:58:25.366Z,23.96
2022-07-27T09:00:54.503Z,23.93
2022-07-27T09:03:25.531Z,23.88
2022-07-27T09:05:55.995Z,23.91
2022-07-27T09:08:25.998Z,23.96
2022-07-27T09:10:55.844Z,24.07
2022-07-27T09:13:26.259Z,24.12
2022-07-27T09:18:46.660Z,24.31
2022-07-27T09:21:18.157Z,24.42
2022-07-27T09:23:50.327Z,24.46
2022-07-27T09:26:31.691Z,24.41
2022-07-27T09:29:03.643Z,24.41
2022-07-27T09:31:32.928Z,24.45
2022-07-27T09:34:03.908Z,24.38
2022-07-27T09:36:32.849Z,24.40
2022-07-27T09:39:05.544Z,24.41
2022-07-27T09:41:41.416Z,24.42
2022-07-27T09:46:58.875Z,24.60
2022-07-27T09:49:30.491Z,24.69
2022-07-27T09:52:02.220Z,24.79
2022-07-27T09:54:44.267Z,24.88
2022-07-27T09:57:12.899Z,24.99
2022-07-27T09:59:41.594Z,25.02
2022-07-27T10:02:10.236Z,25.07
2022-07-27T10:04:41.288Z,25.07
2022-07-27T10:07:13.562Z,25.13
2022-07-27T10:09:43.352Z,25.21
2022-07-27T10:12:12.195Z,25.29
2022-07-27T10:14:40.651Z,25.34
2022-07-27T10:17:10.893Z,25.43
2022-07-27T10:19:47.684Z,25.45
2022-07-27T10:22:16.275Z,25.43
2022-07-27T10:24:47.672Z,25.40
2022-07-27T10:27:22.261Z,25.41
2022-07-27T10:29:52.181Z,25.42
2022-07-27T10:32:28.804Z,25.56
2022-07-27T10:34:59.586Z,25.63
2022-07-27T10:37:29.396Z,25.76
2022-07-27T10:40:17.913Z,25.88
2022-07-27T10:42:53.953Z,25.96
2022-07-27T10:45:23.889Z,25.98
2022-07-27T10:47:53.484Z,26.04
2022-07-27T10:50:29.850Z,26.07
2022-07-27T10:53:02.023Z,26.05
2022-07-27T10:55:52.679Z,26.10
2022-07-27T10:58:52.362Z,26.21
2022-07-27T11:01:22.798Z,26.33
2022-07-27T11:03:53.684Z,26.35
2022-07-27T11:06:48.156Z,26.41
2022-07-27T11:12:13.015Z,26.50
2022-07-27T11:14:48.818Z,26.50
2022-07-27T11:20:09.102Z,26.73
2022-07-27T11:25:29.166Z,26.96
2022-07-27T11:27:57.641Z,26.98
2022-07-27T11:30:27.855Z,27.15
2022-07-27T11:32:57.159Z,27.18
2022-07-27T11:35:25.778Z,27.21
2022-07-27T11:38:03.781Z,27.22
2022-07-27T11:43:37.711Z,27.18
2022-07-27T11:46:18.130Z,26.98
2022-07-27T11:49:08.368Z,26.97
2022-07-27T11:51:42.130Z,26.99
2022-07-27T11:54:14.752Z,27.05
2022-07-27T11:56:46.626Z,27.11
2022-07-27T11:59:17.958Z,27.15
2022-07-27T12:01:49.880Z,27.13
2022-07-27T12:04:24.397Z,27.06
2022-07-27T12:07:02.662Z,27.21
2022-07-27T12:09:38.372Z,27.52
2022-07-27T12:12:13.991Z,27.74
2022-07-27T12:14:44.271Z,27.77
2022-07-27T12:17:15.970Z,27.65
2022-07-27T12:19:51.015Z,27.60
2022-07-27T12:22:24.934Z,27.61
2022-07-27T12:24:55.784Z,27.63
2022-07-27T12:27:26.347Z,27.69
2022-07-27T12:30:03.630Z,27.78
2022-07-27T12:32:34.298Z,28.01
2022-07-27T12:35:16.497Z,28.18
2022-07-27T12:37:45.303Z,28.39
2022-07-27T12:40:19.210Z,28.50
2022-07-27T12:42:56.061Z,28.64
2022-07-27T12:45:24.868Z,28.68
2022-07-27T12:47:53.413Z,28.70
2022-07-27T12:50:29.366Z,28.67
2022-07-27T12:52:58.054Z,28.65
2022-07-27T12:55:28.163Z,28.62
2022-07-27T12:57:57.331Z,28.55
2022-07-27T13:00:33.575Z,28.49
2022-07-27T13:03:04.281Z,28.48
2022-07-27T13:05:34.478Z,28.50
2022-07-27T13:08:04.844Z,28.46
2022-07-27T13:10:36.491Z,28.42
2022-07-27T13:13:05.484Z,28.41
2022-07-27T13:15:34.524Z,28.39
2022-07-27T13:18:03.485Z,28.41
2022-07-27T13:20:32.482Z,28.54
2022-07-27T13:23:01.072Z,28.78
2022-07-27T13:25:29.714Z,29.03
2022-07-27T13:27:59.645Z,29.21
2022-07-27T13:30:28.444Z,29.25
2022-07-27T13:32:57.339Z,29.31
2022-07-27T13:35:25.994Z,29.37
2022-07-27T13:37:54.707Z,29.44
2022-07-27T13:40:23.720Z,29.53
2022-07-27T13:42:52.280Z,29.65
2022-07-27T13:45:22.230Z,29.77
2022-07-27T13:47:50.945Z,29.87
2022-07-27T13:50:20.141Z,29.98
2022-07-27T13:52:49.547Z,30.01
2022-07-27T13:55:18.905Z,30.10
2022-07-27T13:57:48.020Z,30.21
2022-07-27T14:00:17.815Z,30.26
2022-07-27T14:02:47.886Z,30.34
2022-07-27T14:05:20.155Z,30.38
2022-07-27T14:07:48.960Z,30.48
2022-07-27T14:10:32.760Z,30.57
2022-07-27T14:13:08.459Z,30.59
2022-07-27T14:15:53.700Z,30.57
2022-07-27T14:18:27.335Z,30.54
2022-07-27T14:20:57.801Z,30.51
2022-07-27T14:23:27.145Z,30.48
2022-07-27T14:25:56.632Z,30.42
2022-07-27T14:28:26.252Z,30.41
2022-07-27T14:30:55.616Z,30.36
2022-07-27T14:33:32.022Z,30.34
2022-07-27T14:36:05.384Z,30.16
2022-07-27T14:38:33.893Z,30.05
2022-07-27T14:41:02.415Z,30.01
2022-07-27T14:43:31.615Z,30.06
2022-07-27T14:46:01.280Z,30.09
2022-07-27T14:49:06.488Z,30.12
2022-07-27T14:51:19.647Z,30.02
2022-07-27T14:53:48.087Z,29.77
2022-07-27T14:56:17.119Z,29.62
2022-07-27T14:58:45.619Z,29.54
2022-07-27T15:01:16.717Z,29.40
2022-07-27T15:03:47.281Z,29.30
2022-07-27T15:06:15.832Z,29.19
2022-07-27T15:08:44.399Z,29.13
2022-07-27T15:11:12.968Z,29.06
2022-07-27T15:13:41.708Z,29.03
2022-07-27T15:16:11.368Z,29.13
2022-07-27T15:18:40.039Z,29.22
2022-07-27T15:21:13.701Z,29.28
2022-07-27T15:23:44.634Z,29.39
2022-07-27T15:26:13.646Z,29.32
2022-07-27T15:28:45.161Z,29.35
2022-07-27T15:31:13.866Z,29.49
2022-07-27T15:33:42.806Z,29.61
2022-07-27T15:36:32.352Z,29.68
2022-07-27T15:39:01.693Z,29.62
2022-07-27T15:41:31.100Z,29.53
2022-07-27T15:44:01.729Z,29.36
2022-07-27T15:46:32.055Z,29.10
2022-07-27T15:49:01.178Z,28.87
2022-07-27T15:51:32.353Z,28.77
2022-07-27T15:54:00.919Z,28.72
2022-07-27T15:56:29.412Z,28.74
2022-07-27T15:58:57.847Z,28.75
2022-07-27T16:01:35.190Z,28.71
2022-07-27T16:04:05.406Z,28.67
2022-07-27T16:06:39.054Z,28.68
2022-07-27T16:09:09.510Z,28.70
2022-07-27T16:11:38.510Z,28.59
2022-07-27T16:14:07.004Z,28.53
2022-07-27T16:16:35.680Z,28.61
2022-07-27T16:19:12.906Z,28.70
2022-07-27T16:21:53.975Z,28.80
2022-07-27T16:24:25.318Z,28.79
2022-07-27T16:26:54.470Z,28.74
2022-07-27T16:29:23.529Z,28.80
2022-07-27T16:31:54.844Z,28.88
2022-07-27T16:34:23.457Z,28.96
2022-07-27T16:36:53.563Z,29.02
2022-07-27T16:39:22.205Z,29.06
2022-07-27T16:41:51.667Z,29.08
2022-07-27T16:44:21.314Z,29.02
2022-07-27T16:46:50.121Z,28.84
2022-07-27T16:49:19.124Z,28.72
2022-07-27T16:51:48.016Z,28.60
2022-07-27T16:54:18.230Z,28.46
2022-07-27T16:56:46.771Z,28.30
2022-07-27T16:59:15.633Z,28.20
2022-07-27T17:01:44.469Z,28.10
2022-07-27T17:04:13.056Z,28.02
2022-07-27T17:06:41.624Z,28.07
2022-07-27T17:09:10.466Z,28.13
2022-07-27T17:11:40.576Z,28.19
2022-07-27T17:14:11.767Z,28.14
2022-07-27T17:16:40.574Z,28.06
2022-07-27T17:19:09.089Z,28.03
2022-07-27T17:21:37.675Z,28.01
2022-07-27T17:24:07.106Z,28.02
2022-07-27T17:26:35.921Z,28.03
2022-07-27T17:29:06.537Z,28.01
2022-07-27T17:31:35.141Z,27.96
2022-07-27T17:34:03.899Z,27.87
2022-07-27T17:36:32.514Z,27.79
2022-07-27T17:39:02.302Z,27.75
2022-07-27T17:41:32.092Z,27.69
2022-07-27T17:44:00.707Z,27.63
2022-07-27T17:46:33.119Z,27.53
2022-07-27T17:49:04.108Z,27.44
2022-07-27T17:51:34.652Z,27.38
2022-07-27T17:54:03.883Z,27.32
2022-07-27T17:56:33.156Z,27.26
2022-07-27T17:59:27.043Z,27.19
2022-07-27T18:01:51.509Z,27.10
2022-07-27T18:04:20.136Z,27.05
2022-07-27T18:06:48.686Z,26.99
2022-07-27T18:09:17.513Z,26.92
2022-07-27T18:11:46.138Z,26.86
2022-07-27T18:14:14.773Z,26.79
2022-07-27T18:16:43.433Z,26.73
2022-07-27T18:19:13.616Z,26.66
2022-07-27T18:21:42.364Z,26.58
2022-07-27T18:24:10.899Z,26.52
2022-07-27T18:26:40.122Z,26.47
2022-07-27T18:29:09.941Z,26.45
2022-07-27T18:31:39.079Z,26.43
2022-07-27T18:34:12.617Z,26.39
2022-07-27T18:36:43.056Z,26.28
2022-07-27T18:39:11.996Z,26.15
2022-07-27T18:41:41.332Z,26.05
2022-07-27T18:44:09.859Z,26.03
2022-07-27T18:46:38.601Z,26.02
2022-07-27T18:49:07.958Z,25.97
2022-07-27T18:51:38.535Z,25.91
2022-07-27T18:54:08.516Z,25.70
2022-07-27T18:56:39.526Z,25.46
2022-07-27T18:59:08.431Z,25.28
2022-07-27T19:01:37.090Z,25.17
2022-07-27T19:04:06.415Z,25.11
2022-07-27T19:06:36.635Z,25.09
2022-07-27T19:09:06.289Z,25.18
2022-07-27T19:11:36.175Z,25.23
2022-07-27T19:14:04.801Z,25.25
2022-07-27T19:16:34.135Z,25.12
2022-07-27T19:19:03.003Z,25.01
2022-07-27T19:21:32.290Z,24.74
2022-07-27T19:24:00.766Z,24.56
2022-07-27T19:26:29.322Z,24.40
2022-07-27T19:28:59.232Z,24.24
2022-07-27T19:31:28.359Z,24.20
2022-07-27T19:33:57.185Z,24.22
2022-07-27T19:36:25.683Z,24.24
2022-07-27T19:38:54.400Z,24.28
2022-07-27T19:41:22.964Z,24.30
2022-07-27T19:43:51.422Z,24.31
2022-07-27T19:46:21.530Z,24.28
2022-07-27T19:48:50.065Z,24.20
2022-07-27T19:51:18.698Z,24.15
2022-07-27T19:53:47.285Z,24.15
2022-07-27T19:56:15.797Z,24.09
2022-07-27T19:58:44.440Z,24.02
2022-07-27T20:01:14.060Z,23.91
2022-07-27T20:03:48.670Z,23.88
2022-07-27T20:06:23.900Z,23.88
2022-07-27T20:08:55.777Z,23.77
2022-07-27T20:11:24.634Z,23.55
2022-07-27T20:13:53.120Z,23.43
2022-07-27T20:16:21.711Z,23.38
2022-07-27T20:18:51.545Z,23.46
2022-07-27T20:21:23.151Z,23.53
2022-07-27T20:23:52.559Z,23.59
2022-07-27T20:26:21.120Z,23.65
2022-07-27T20:28:50.155Z,23.57
2022-07-27T20:31:19.227Z,23.58
2022-07-27T20:33:48.071Z,23.62
2022-07-27T20:36:17.960Z,23.68
2022-07-27T20:38:46.445Z,23.76
2022-07-27T20:41:15.041Z,23.87
2022-07-27T20:43:43.818Z,23.91
2022-07-27T20:46:15.924Z,23.92
2022-07-27T20:48:44.648Z,23.87
2022-07-27T20:51:13.642Z,23.85
2022-07-27T20:53:44.588Z,23.83
2022-07-27T20:56:13.136Z,23.84
2022-07-27T20:58:41.701Z,23.82
2022-07-27T21:01:10.506Z,23.82
2022-07-27T21:03:39.205Z,23.78
2022-07-27T21:06:07.689Z,23.71
2022-07-27T21:08:42.838Z,23.62
2022-07-27T21:11:16.176Z,23.46
2022-07-27T21:13:44.901Z,23.40
2022-07-27T21:16:13.486Z,23.41
2022-07-27T21:18:41.935Z,23.44
2022-07-27T21:21:10.523Z,23.45
2022-07-27T21:23:56.610Z,23.49
2022-07-27T21:26:26.391Z,23.55
2022-07-27T21:28:55.081Z,23.52
2022-07-27T21:31:24.956Z,23.47
2022-07-27T21:33:53.630Z,23.41
2022-07-27T21:36:22.173Z,23.23
2022-07-27T21:38:51.125Z,23.17
2022-07-27T21:41:19.645Z,23.04
2022-07-27T21:43:49.630Z,22.86
2022-07-27T21:46:18.192Z,22.68
2022-07-27T21:48:47.782Z,22.66
2022-07-27T21:51:18.339Z,22.64
2022-07-27T21:53:47.298Z,22.56
2022-07-27T21:56:16.617Z,22.57
2022-07-27T21:58:46.117Z,22.66
2022-07-27T22:01:17.154Z,22.70
2022-07-27T22:03:46.207Z,22.68
2022-07-27T22:06:15.090Z,22.28
2022-07-27T22:08:43.680Z,22.20
2022-07-27T22:11:12.163Z,22.18
2022-07-27T22:13:40.643Z,22.15
2022-07-27T22:16:12.510Z,21.96
2022-07-27T22:18:42.723Z,21.75
2022-07-27T22:21:11.281Z,21.59
2022-07-27T22:23:41.135Z,21.50
2022-07-27T22:26:09.725Z,21.57
2022-07-27T22:28:39.944Z,21.65
2022-07-27T22:31:22.722Z,21.68
2022-07-27T22:33:53.422Z,21.69
2022-07-27T22:36:21.862Z,21.69
2022-07-27T22:38:50.333Z,21.84
2022-07-27T22:41:18.841Z,21.91
2022-07-27T22:43:47.583Z,21.97
2022-07-27T22:46:16.258Z,22.01
2022-07-27T22:48:45.687Z,21.97
2022-07-27T22:51:15.576Z,21.87
2022-07-27T22:53:44.036Z,21.81
2022-07-27T22:56:12.524Z,21.76
2022-07-27T22:58:40.997Z,21.65
2022-07-27T23:01:45.411Z,21.50
2022-07-27T23:03:57.993Z,21.46
2022-07-27T23:06:27.821Z,21.38
2022-07-27T23:08:56.339Z,21.38
2022-07-27T23:11:24.863Z,21.36
2022-07-27T23:13:53.457Z,21.26
2022-07-27T23:16:21.967Z,21.17
2022-07-27T23:18:50.539Z,21.15
2022-07-27T23:21:19.124Z,21.07
2022-07-27T23:23:54.102Z,21.01
2022-07-27T23:26:25.778Z,21.03
2022-07-27T23:28:54.516Z,21.11
2022-07-27T23:31:23.295Z,21.21
2022-07-27T23:33:51.747Z,21.34
2022-07-27T23:36:20.796Z,21.37
2022-07-27T23:38:50.643Z,21.34
2022-07-27T23:41:19.366Z,21.26
2022-07-27T23:43:47.899Z,21.11
2022-07-27T23:46:16.382Z,20.82
2022-07-27T23:48:44.914Z,20.65
2022-07-27T23:51:17.653Z,20.51
2022-07-27T23:53:46.210Z,20.46
2022-07-27T23:56:16.082Z,20.61
2022-07-27T23:58:45.764Z,20.63
